sensor_id;sensor_type;location;lat;lon;timestamp;temperature;humidity
10062;DHT22;5070;52.382;5.270;2023-03-02T00:01:52;16.50;63.60
10062;DHT22;5070;52.382;5.270;2023-03-02T00:04:23;16.50;63.70
10062;DHT22;5070;52.382;5.270;2023-03-02T00:06:56;16.50;63.50
10062;DHT22;5070;52.382;5.270;2023-03-02T00:09:25;16.60;63.80
10062;DHT22;5070;52.382;5.270;2023-03-02T00:11:54;16.60;63.00
10062;DHT22;5070;52.382;5.270;2023-03-02T00:14:25;16.60;63.20
10062;DHT22;5070;52.382;5.270;2023-03-02T00:16:52;16.60;63.40
10062;DHT22;5070;52.382;5.270;2023-03-02T00:19:20;16.60;63.20
10062;DHT22;5070;52.382;5.270;2023-03-02T00:21:48;16.60;63.80
10062;DHT22;5070;52.382;5.270;2023-03-02T00:24:18;16.70;62.80
10062;DHT22;5070;52.382;5.270;2023-03-02T00:26:46;16.70;63.90
10062;DHT22;5070;52.382;5.270;2023-03-02T00:29:14;16.70;63.70
10062;DHT22;5070;52.382;5.270;2023-03-02T00:31:42;16.70;63.70
10062;DHT22;5070;52.382;5.270;2023-03-02T00:34:10;16.70;63.80
10062;DHT22;5070;52.382;5.270;2023-03-02T00:36:38;16.70;63.90
10062;DHT22;5070;52.382;5.270;2023-03-02T00:39:06;16.60;63.90
10062;DHT22;5070;52.382;5.270;2023-03-02T00:41:36;16.70;64.00
10062;DHT22;5070;52.382;5.270;2023-03-02T00:44:05;16.70;63.90
10062;DHT22;5070;52.382;5.270;2023-03-02T00:46:33;16.60;63.80
10062;DHT22;5070;52.382;5.270;2023-03-02T00:49:01;16.60;63.60
10062;DHT22;5070;52.382;5.270;2023-03-02T00:51:29;16.60;63.80
10062;DHT22;5070;52.382;5.270;2023-03-02T00:53:57;16.60;63.80
10062;DHT22;5070;52.382;5.270;2023-03-02T00:56:28;16.60;63.50
10062;DHT22;5070;52.382;5.270;2023-03-02T00:59:03;16.60;63.70
10062;DHT22;5070;52.382;5.270;2023-03-02T01:01:31;16.60;63.80
10062;DHT22;5070;52.382;5.270;2023-03-02T01:03:59;16.60;63.80
10062;DHT22;5070;52.382;5.270;2023-03-02T01:06:31;16.50;63.50
10062;DHT22;5070;52.382;5.270;2023-03-02T01:08:59;16.50;63.50
10062;DHT22;5070;52.382;5.270;2023-03-02T01:11:27;16.50;64.40
10062;DHT22;5070;52.382;5.270;2023-03-02T01:13:59;16.50;63.50
10062;DHT22;5070;52.382;5.270;2023-03-02T01:16:27;16.50;63.70
10062;DHT22;5070;52.382;5.270;2023-03-02T01:18:55;16.50;63.60
10062;DHT22;5070;52.382;5.270;2023-03-02T01:21:23;16.50;63.70
10062;DHT22;5070;52.382;5.270;2023-03-02T01:23:51;16.50;63.60
10062;DHT22;5070;52.382;5.270;2023-03-02T01:26:19;16.50;63.50
10062;DHT22;5070;52.382;5.270;2023-03-02T01:28:47;16.50;63.70
10062;DHT22;5070;52.382;5.270;2023-03-02T01:31:18;16.50;63.50
10062;DHT22;5070;52.382;5.270;2023-03-02T01:33:46;16.50;63.50
10062;DHT22;5070;52.382;5.270;2023-03-02T01:36:14;16.40;63.40
10062;DHT22;5070;52.382;5.270;2023-03-02T01:38:42;16.40;63.40
10062;DHT22;5070;52.382;5.270;2023-03-02T01:41:11;16.40;63.50
10062;DHT22;5070;52.382;5.270;2023-03-02T01:43:39;16.40;63.40
10062;DHT22;5070;52.382;5.270;2023-03-02T01:46:13;16.40;63.50
10062;DHT22;5070;52.382;5.270;2023-03-02T01:48:50;16.40;63.50
10062;DHT22;5070;52.382;5.270;2023-03-02T01:51:29;16.40;63.30
10062;DHT22;5070;52.382;5.270;2023-03-02T01:54:02;16.40;63.50
10062;DHT22;5070;52.382;5.270;2023-03-02T01:56:35;16.40;63.60
10062;DHT22;5070;52.382;5.270;2023-03-02T01:59:06;16.40;63.50
10062;DHT22;5070;52.382;5.270;2023-03-02T02:01:38;16.50;63.70
10062;DHT22;5070;52.382;5.270;2023-03-02T02:04:08;16.50;63.70
10062;DHT22;5070;52.382;5.270;2023-03-02T02:06:38;16.50;63.70
10062;DHT22;5070;52.382;5.270;2023-03-02T02:09:09;16.50;63.60
10062;DHT22;5070;52.382;5.270;2023-03-02T02:11:38;16.50;63.50
10062;DHT22;5070;52.382;5.270;2023-03-02T02:14:06;16.50;63.50
10062;DHT22;5070;52.382;5.270;2023-03-02T02:16:35;16.50;63.50
10062;DHT22;5070;52.382;5.270;2023-03-02T02:19:06;16.60;63.50
10062;DHT22;5070;52.382;5.270;2023-03-02T02:21:38;16.60;63.50
10062;DHT22;5070;52.382;5.270;2023-03-02T02:24:08;16.60;63.50
10062;DHT22;5070;52.382;5.270;2023-03-02T02:26:42;16.60;63.70
10062;DHT22;5070;52.382;5.270;2023-03-02T02:29:14;16.60;63.80
10062;DHT22;5070;52.382;5.270;2023-03-02T02:31:47;16.60;63.80
10062;DHT22;5070;52.382;5.270;2023-03-02T02:34:19;16.60;63.70
10062;DHT22;5070;52.382;5.270;2023-03-02T02:36:53;16.60;63.70
10062;DHT22;5070;52.382;5.270;2023-03-02T02:39:25;16.70;63.70
10062;DHT22;5070;52.382;5.270;2023-03-02T02:41:58;16.70;63.70
10062;DHT22;5070;52.382;5.270;2023-03-02T02:44:27;16.60;63.60
10062;DHT22;5070;52.382;5.270;2023-03-02T02:46:56;16.60;63.50
10062;DHT22;5070;52.382;5.270;2023-03-02T02:49:30;16.60;63.70
10062;DHT22;5070;52.382;5.270;2023-03-02T02:51:59;16.60;63.70
10062;DHT22;5070;52.382;5.270;2023-03-02T02:54:29;16.60;63.70
10062;DHT22;5070;52.382;5.270;2023-03-02T02:57:00;16.60;63.80
10062;DHT22;5070;52.382;5.270;2023-03-02T02:59:32;16.60;63.70
10062;DHT22;5070;52.382;5.270;2023-03-02T03:02:02;16.60;63.70
10062;DHT22;5070;52.382;5.270;2023-03-02T03:04:31;16.60;63.50
10062;DHT22;5070;52.382;5.270;2023-03-02T03:07:04;16.60;63.70
10062;DHT22;5070;52.382;5.270;2023-03-02T03:09:32;16.60;63.50
10062;DHT22;5070;52.382;5.270;2023-03-02T03:12:06;16.50;63.50
10062;DHT22;5070;52.382;5.270;2023-03-02T03:14:38;16.50;63.50
10062;DHT22;5070;52.382;5.270;2023-03-02T03:17:08;16.50;63.40
10062;DHT22;5070;52.382;5.270;2023-03-02T03:19:46;16.50;63.50
10062;DHT22;5070;52.382;5.270;2023-03-02T03:22:16;16.50;63.70
10062;DHT22;5070;52.382;5.270;2023-03-02T03:24:46;16.50;63.60
10062;DHT22;5070;52.382;5.270;2023-03-02T03:27:17;16.50;63.50
10062;DHT22;5070;52.382;5.270;2023-03-02T03:29:48;16.50;63.50
10062;DHT22;5070;52.382;5.270;2023-03-02T03:32:19;16.40;63.30
10062;DHT22;5070;52.382;5.270;2023-03-02T03:34:51;16.40;63.60
10062;DHT22;5070;52.382;5.270;2023-03-02T03:37:28;16.40;63.40
10062;DHT22;5070;52.382;5.270;2023-03-02T03:39:56;16.40;63.40
10062;DHT22;5070;52.382;5.270;2023-03-02T03:42:25;16.40;63.40
10062;DHT22;5070;52.382;5.270;2023-03-02T03:44:55;16.40;63.40
10062;DHT22;5070;52.382;5.270;2023-03-02T03:47:23;16.40;63.30
10062;DHT22;5070;52.382;5.270;2023-03-02T03:49:51;16.40;63.60
10062;DHT22;5070;52.382;5.270;2023-03-02T03:52:20;16.30;63.60
10062;DHT22;5070;52.382;5.270;2023-03-02T03:55:02;16.30;63.70
10062;DHT22;5070;52.382;5.270;2023-03-02T03:57:32;16.30;63.50
10062;DHT22;5070;52.382;5.270;2023-03-02T04:00:00;16.30;63.50
10062;DHT22;5070;52.382;5.270;2023-03-02T04:02:39;16.40;63.50
10062;DHT22;5070;52.382;5.270;2023-03-02T04:05:09;16.40;63.40
10062;DHT22;5070;52.382;5.270;2023-03-02T04:07:38;16.40;63.40
10062;DHT22;5070;52.382;5.270;2023-03-02T04:10:08;16.40;63.40
10062;DHT22;5070;52.382;5.270;2023-03-02T04:12:40;16.40;63.30
10062;DHT22;5070;52.382;5.270;2023-03-02T04:15:13;16.50;63.40
10062;DHT22;5070;52.382;5.270;2023-03-02T04:17:43;16.50;63.40
10062;DHT22;5070;52.382;5.270;2023-03-02T04:20:14;16.50;63.40
10062;DHT22;5070;52.382;5.270;2023-03-02T04:22:47;16.50;63.40
10062;DHT22;5070;52.382;5.270;2023-03-02T04:25:17;16.50;63.50
10062;DHT22;5070;52.382;5.270;2023-03-02T04:27:50;16.50;63.40
10062;DHT22;5070;52.382;5.270;2023-03-02T04:30:22;16.50;63.20
10062;DHT22;5070;52.382;5.270;2023-03-02T04:32:51;16.50;63.30
10062;DHT22;5070;52.382;5.270;2023-03-02T04:35:20;16.60;63.60
10062;DHT22;5070;52.382;5.270;2023-03-02T04:37:48;16.60;63.60
10062;DHT22;5070;52.382;5.270;2023-03-02T04:40:17;16.60;63.50
10062;DHT22;5070;52.382;5.270;2023-03-02T04:42:45;16.60;63.70
10062;DHT22;5070;52.382;5.270;2023-03-02T04:45:14;16.60;63.70
10062;DHT22;5070;52.382;5.270;2023-03-02T04:47:43;16.60;63.60
10062;DHT22;5070;52.382;5.270;2023-03-02T04:50:13;16.60;63.50
10062;DHT22;5070;52.382;5.270;2023-03-02T04:52:41;16.60;63.50
10062;DHT22;5070;52.382;5.270;2023-03-02T04:55:14;16.60;63.50
10062;DHT22;5070;52.382;5.270;2023-03-02T04:57:44;16.60;63.50
10062;DHT22;5070;52.382;5.270;2023-03-02T05:00:15;16.60;63.70
10062;DHT22;5070;52.382;5.270;2023-03-02T05:02:44;16.50;63.50
10062;DHT22;5070;52.382;5.270;2023-03-02T05:05:15;16.50;63.40
10062;DHT22;5070;52.382;5.270;2023-03-02T05:07:44;16.50;63.60
10062;DHT22;5070;52.382;5.270;2023-03-02T05:10:13;16.50;63.50
10062;DHT22;5070;52.382;5.270;2023-03-02T05:12:42;16.50;63.60
10062;DHT22;5070;52.382;5.270;2023-03-02T05:15:23;16.50;63.40
10062;DHT22;5070;52.382;5.270;2023-03-02T05:17:52;16.50;63.40
10062;DHT22;5070;52.382;5.270;2023-03-02T05:20:20;16.50;63.50
10062;DHT22;5070;52.382;5.270;2023-03-02T05:22:53;16.50;63.40
10062;DHT22;5070;52.382;5.270;2023-03-02T05:25:22;16.40;63.30
10062;DHT22;5070;52.382;5.270;2023-03-02T05:27:51;16.40;63.30
10062;DHT22;5070;52.382;5.270;2023-03-02T05:30:19;16.40;63.20
10062;DHT22;5070;52.382;5.270;2023-03-02T05:32:50;16.40;63.30
10062;DHT22;5070;52.382;5.270;2023-03-02T05:35:19;16.40;63.30
10062;DHT22;5070;52.382;5.270;2023-03-02T05:37:47;16.40;63.30
10062;DHT22;5070;52.382;5.270;2023-03-02T05:40:18;16.30;63.20
10062;DHT22;5070;52.382;5.270;2023-03-02T05:42:46;16.30;63.20
10062;DHT22;5070;52.382;5.270;2023-03-02T05:45:21;16.30;63.30
10062;DHT22;5070;52.382;5.270;2023-03-02T05:47:50;16.30;63.30
10062;DHT22;5070;52.382;5.270;2023-03-02T05:50:20;16.30;63.40
10062;DHT22;5070;52.382;5.270;2023-03-02T05:52:50;16.30;63.30
10062;DHT22;5070;52.382;5.270;2023-03-02T05:55:21;16.30;63.40
10062;DHT22;5070;52.382;5.270;2023-03-02T05:57:49;16.30;63.40
10062;DHT22;5070;52.382;5.270;2023-03-02T06:00:18;16.40;63.30
10062;DHT22;5070;52.382;5.270;2023-03-02T06:02:46;16.40;63.20
10062;DHT22;5070;52.382;5.270;2023-03-02T06:05:18;16.40;63.20
10062;DHT22;5070;52.382;5.270;2023-03-02T06:07:47;16.40;63.20
10062;DHT22;5070;52.382;5.270;2023-03-02T06:10:15;16.40;63.20
10062;DHT22;5070;52.382;5.270;2023-03-02T06:12:43;16.40;63.40
10062;DHT22;5070;52.382;5.270;2023-03-02T06:15:11;16.50;63.20
10062;DHT22;5070;52.382;5.270;2023-03-02T06:17:39;16.50;63.20
10062;DHT22;5070;52.382;5.270;2023-03-02T06:20:08;16.50;63.20
10062;DHT22;5070;52.382;5.270;2023-03-02T06:22:40;16.50;63.20
10062;DHT22;5070;52.382;5.270;2023-03-02T06:25:10;16.50;63.20
10062;DHT22;5070;52.382;5.270;2023-03-02T06:27:39;16.50;63.30
10062;DHT22;5070;52.382;5.270;2023-03-02T06:30:10;16.50;63.30
10062;DHT22;5070;52.382;5.270;2023-03-02T06:32:39;16.50;63.20
10062;DHT22;5070;52.382;5.270;2023-03-02T06:35:09;16.60;63.00
10062;DHT22;5070;52.382;5.270;2023-03-02T06:37:39;16.60;63.20
10062;DHT22;5070;52.382;5.270;2023-03-02T06:40:11;16.60;63.20
10062;DHT22;5070;52.382;5.270;2023-03-02T06:42:40;16.60;64.10
10062;DHT22;5070;52.382;5.270;2023-03-02T06:45:09;16.60;63.50
10062;DHT22;5070;52.382;5.270;2023-03-02T06:47:37;16.60;63.50
10062;DHT22;5070;52.382;5.270;2023-03-02T06:50:07;16.60;63.40
10062;DHT22;5070;52.382;5.270;2023-03-02T06:52:35;16.60;63.50
10062;DHT22;5070;52.382;5.270;2023-03-02T06:55:05;16.60;63.50
10062;DHT22;5070;52.382;5.270;2023-03-02T06:57:33;16.50;63.60
10062;DHT22;5070;52.382;5.270;2023-03-02T07:00:03;16.60;63.60
10062;DHT22;5070;52.382;5.270;2023-03-02T07:02:35;16.50;63.50
10062;DHT22;5070;52.382;5.270;2023-03-02T07:05:03;16.50;63.40
10062;DHT22;5070;52.382;5.270;2023-03-02T07:07:32;16.50;63.50
10062;DHT22;5070;52.382;5.270;2023-03-02T07:10:00;16.50;63.60
10062;DHT22;5070;52.382;5.270;2023-03-02T07:12:29;16.50;63.60
10062;DHT22;5070;52.382;5.270;2023-03-02T07:14:57;16.50;63.60
10062;DHT22;5070;52.382;5.270;2023-03-02T07:17:25;16.50;63.60
10062;DHT22;5070;52.382;5.270;2023-03-02T07:19:54;16.50;63.60
10062;DHT22;5070;52.382;5.270;2023-03-02T07:22:22;16.50;63.50
10062;DHT22;5070;52.382;5.270;2023-03-02T07:24:50;16.40;63.40
10062;DHT22;5070;52.382;5.270;2023-03-02T07:27:20;16.50;63.60
10062;DHT22;5070;52.382;5.270;2023-03-02T07:29:52;16.40;63.60
10062;DHT22;5070;52.382;5.270;2023-03-02T07:32:20;16.40;63.40
10062;DHT22;5070;52.382;5.270;2023-03-02T07:34:48;16.40;63.50
10062;DHT22;5070;52.382;5.270;2023-03-02T07:37:16;16.40;63.40
10062;DHT22;5070;52.382;5.270;2023-03-02T07:39:46;16.40;63.40
10062;DHT22;5070;52.382;5.270;2023-03-02T07:42:14;16.40;63.30
10062;DHT22;5070;52.382;5.270;2023-03-02T07:44:46;16.40;63.30
10062;DHT22;5070;52.382;5.270;2023-03-02T07:47:15;16.40;63.30
10062;DHT22;5070;52.382;5.270;2023-03-02T07:49:43;16.40;63.30
10062;DHT22;5070;52.382;5.270;2023-03-02T07:52:14;16.40;63.10
10062;DHT22;5070;52.382;5.270;2023-03-02T07:54:42;16.40;63.20
10062;DHT22;5070;52.382;5.270;2023-03-02T07:57:10;16.40;63.30
10062;DHT22;5070;52.382;5.270;2023-03-02T07:59:39;16.40;63.30
10062;DHT22;5070;52.382;5.270;2023-03-02T08:02:11;16.40;63.40
10062;DHT22;5070;52.382;5.270;2023-03-02T08:04:42;16.40;63.40
10062;DHT22;5070;52.382;5.270;2023-03-02T08:07:10;16.40;63.20
10062;DHT22;5070;52.382;5.270;2023-03-02T08:09:38;16.40;63.20
10062;DHT22;5070;52.382;5.270;2023-03-02T08:12:08;16.40;63.20
10062;DHT22;5070;52.382;5.270;2023-03-02T08:14:37;16.40;63.00
10062;DHT22;5070;52.382;5.270;2023-03-02T08:17:05;16.50;63.10
10062;DHT22;5070;52.382;5.270;2023-03-02T08:19:33;16.50;63.20
10062;DHT22;5070;52.382;5.270;2023-03-02T08:22:02;16.50;63.40
10062;DHT22;5070;52.382;5.270;2023-03-02T08:24:30;16.50;63.40
10062;DHT22;5070;52.382;5.270;2023-03-02T08:26:59;16.50;63.10
10062;DHT22;5070;52.382;5.270;2023-03-02T08:29:31;16.50;63.40
10062;DHT22;5070;52.382;5.270;2023-03-02T08:32:01;16.60;62.80
10062;DHT22;5070;52.382;5.270;2023-03-02T08:34:31;16.60;62.30
10062;DHT22;5070;52.382;5.270;2023-03-02T08:36:58;16.60;63.10
10062;DHT22;5070;52.382;5.270;2023-03-02T08:39:28;16.60;63.70
10062;DHT22;5070;52.382;5.270;2023-03-02T08:41:57;16.60;63.60
10062;DHT22;5070;52.382;5.270;2023-03-02T08:44:25;16.60;63.80
10062;DHT22;5070;52.382;5.270;2023-03-02T08:46:53;16.60;63.10
10062;DHT22;5070;52.382;5.270;2023-03-02T08:49:21;16.60;63.10
10062;DHT22;5070;52.382;5.270;2023-03-02T08:51:49;16.70;63.50
10062;DHT22;5070;52.382;5.270;2023-03-02T08:54:19;16.70;63.90
10062;DHT22;5070;52.382;5.270;2023-03-02T08:56:49;16.70;63.50
10062;DHT22;5070;52.382;5.270;2023-03-02T08:59:17;16.70;65.30
10062;DHT22;5070;52.382;5.270;2023-03-02T09:01:46;16.70;64.20
10062;DHT22;5070;52.382;5.270;2023-03-02T09:04:14;16.70;64.90
10062;DHT22;5070;52.382;5.270;2023-03-02T09:06:43;16.70;65.80
10062;DHT22;5070;52.382;5.270;2023-03-02T09:09:12;16.70;64.10
10062;DHT22;5070;52.382;5.270;2023-03-02T09:11:41;16.70;63.50
10062;DHT22;5070;52.382;5.270;2023-03-02T09:14:10;16.70;63.00
10062;DHT22;5070;52.382;5.270;2023-03-02T09:16:41;16.70;62.80
10062;DHT22;5070;52.382;5.270;2023-03-02T09:19:12;16.70;63.60
10062;DHT22;5070;52.382;5.270;2023-03-02T09:21:40;16.70;63.50
10062;DHT22;5070;52.382;5.270;2023-03-02T09:24:09;16.70;63.50
10062;DHT22;5070;52.382;5.270;2023-03-02T09:26:37;16.70;64.10
10062;DHT22;5070;52.382;5.270;2023-03-02T09:29:07;16.70;62.50
10062;DHT22;5070;52.382;5.270;2023-03-02T09:31:37;16.70;62.80
10062;DHT22;5070;52.382;5.270;2023-03-02T09:34:05;16.70;63.20
10062;DHT22;5070;52.382;5.270;2023-03-02T09:36:33;16.70;63.30
10062;DHT22;5070;52.382;5.270;2023-03-02T09:39:02;16.70;63.40
10062;DHT22;5070;52.382;5.270;2023-03-02T09:41:56;16.70;63.50
10062;DHT22;5070;52.382;5.270;2023-03-02T09:47:36;16.70;63.50
10062;DHT22;5070;52.382;5.270;2023-03-02T09:50:15;16.70;63.50
10062;DHT22;5070;52.382;5.270;2023-03-02T09:52:54;16.70;63.40
10062;DHT22;5070;52.382;5.270;2023-03-02T09:55:29;16.70;63.30
10062;DHT22;5070;52.382;5.270;2023-03-02T09:58:00;16.70;63.50
10062;DHT22;5070;52.382;5.270;2023-03-02T10:00:34;16.70;63.10
10062;DHT22;5070;52.382;5.270;2023-03-02T10:03:05;16.70;63.00
10062;DHT22;5070;52.382;5.270;2023-03-02T10:05:45;16.70;62.60
10062;DHT22;5070;52.382;5.270;2023-03-02T10:08:16;16.70;62.70
10062;DHT22;5070;52.382;5.270;2023-03-02T10:10:51;16.70;62.10
10062;DHT22;5070;52.382;5.270;2023-03-02T10:13:24;16.70;62.30
10062;DHT22;5070;52.382;5.270;2023-03-02T10:16:05;16.70;62.00
10062;DHT22;5070;52.382;5.270;2023-03-02T10:18:42;16.70;61.80
10062;DHT22;5070;52.382;5.270;2023-03-02T10:21:17;16.70;62.60
10062;DHT22;5070;52.382;5.270;2023-03-02T10:23:53;16.70;62.00
10062;DHT22;5070;52.382;5.270;2023-03-02T10:26:35;16.70;61.50
10062;DHT22;5070;52.382;5.270;2023-03-02T10:29:16;16.70;62.10
10062;DHT22;5070;52.382;5.270;2023-03-02T10:31:49;16.70;62.60
10062;DHT22;5070;52.382;5.270;2023-03-02T10:34:24;16.70;62.60
10062;DHT22;5070;52.382;5.270;2023-03-02T10:36:53;16.70;63.30
10062;DHT22;5070;52.382;5.270;2023-03-02T10:39:21;16.70;63.20
10062;DHT22;5070;52.382;5.270;2023-03-02T10:41:51;16.70;62.30
10062;DHT22;5070;52.382;5.270;2023-03-02T10:44:22;16.70;63.10
10062;DHT22;5070;52.382;5.270;2023-03-02T10:46:52;16.80;63.30
10062;DHT22;5070;52.382;5.270;2023-03-02T10:49:27;16.80;63.00
10062;DHT22;5070;52.382;5.270;2023-03-02T10:51:58;16.80;63.00
10062;DHT22;5070;52.382;5.270;2023-03-02T10:54:30;16.80;62.90
10062;DHT22;5070;52.382;5.270;2023-03-02T10:57:00;16.80;64.20
10062;DHT22;5070;52.382;5.270;2023-03-02T10:59:43;16.80;65.40
10062;DHT22;5070;52.382;5.270;2023-03-02T11:02:15;16.80;63.70
10062;DHT22;5070;52.382;5.270;2023-03-02T11:04:45;16.90;65.10
10062;DHT22;5070;52.382;5.270;2023-03-02T11:07:16;16.90;66.10
10062;DHT22;5070;52.382;5.270;2023-03-02T11:09:58;16.90;64.70
10062;DHT22;5070;52.382;5.270;2023-03-02T11:12:28;16.90;64.60
10062;DHT22;5070;52.382;5.270;2023-03-02T11:15:17;16.90;64.90
10062;DHT22;5070;52.382;5.270;2023-03-02T11:17:48;16.90;64.00
10062;DHT22;5070;52.382;5.270;2023-03-02T11:20:23;16.90;65.30
10062;DHT22;5070;52.382;5.270;2023-03-02T11:22:59;16.90;64.00
10062;DHT22;5070;52.382;5.270;2023-03-02T11:25:32;16.90;64.30
10062;DHT22;5070;52.382;5.270;2023-03-02T11:28:11;16.90;64.40
10062;DHT22;5070;52.382;5.270;2023-03-02T11:30:46;17.00;64.80
10062;DHT22;5070;52.382;5.270;2023-03-02T11:33:20;17.00;64.10
10062;DHT22;5070;52.382;5.270;2023-03-02T11:35:54;17.00;63.90
10062;DHT22;5070;52.382;5.270;2023-03-02T11:38:26;17.00;64.40
10062;DHT22;5070;52.382;5.270;2023-03-02T11:40:57;17.00;64.00
10062;DHT22;5070;52.382;5.270;2023-03-02T11:43:26;17.00;64.00
10062;DHT22;5070;52.382;5.270;2023-03-02T11:45:58;17.00;64.00
10062;DHT22;5070;52.382;5.270;2023-03-02T11:48:30;17.00;64.20
10062;DHT22;5070;52.382;5.270;2023-03-02T11:51:03;17.10;64.30
10062;DHT22;5070;52.382;5.270;2023-03-02T11:53:38;17.10;64.40
10062;DHT22;5070;52.382;5.270;2023-03-02T11:56:08;17.10;64.40
10062;DHT22;5070;52.382;5.270;2023-03-02T11:58:37;17.10;64.60
10062;DHT22;5070;52.382;5.270;2023-03-02T12:01:08;17.10;64.60
10062;DHT22;5070;52.382;5.270;2023-03-02T12:03:40;17.10;64.80
10062;DHT22;5070;52.382;5.270;2023-03-02T12:06:33;17.10;64.80
10062;DHT22;5070;52.382;5.270;2023-03-02T12:09:31;17.10;64.80
10062;DHT22;5070;52.382;5.270;2023-03-02T12:12:18;17.10;64.80
10062;DHT22;5070;52.382;5.270;2023-03-02T12:14:51;17.10;64.90
10062;DHT22;5070;52.382;5.270;2023-03-02T12:17:28;17.20;65.10
10062;DHT22;5070;52.382;5.270;2023-03-02T12:20:09;17.20;65.20
10062;DHT22;5070;52.382;5.270;2023-03-02T12:22:41;17.20;65.20
10062;DHT22;5070;52.382;5.270;2023-03-02T12:25:26;17.20;65.20
10062;DHT22;5070;52.382;5.270;2023-03-02T12:27:54;17.20;65.30
10062;DHT22;5070;52.382;5.270;2023-03-02T12:30:25;17.20;65.20
10062;DHT22;5070;52.382;5.270;2023-03-02T12:33:03;17.20;65.30
10062;DHT22;5070;52.382;5.270;2023-03-02T12:35:33;17.20;65.30
10062;DHT22;5070;52.382;5.270;2023-03-02T12:38:05;17.20;65.30
10062;DHT22;5070;52.382;5.270;2023-03-02T12:40:52;17.20;65.30
10062;DHT22;5070;52.382;5.270;2023-03-02T12:43:28;17.30;65.30
10062;DHT22;5070;52.382;5.270;2023-03-02T12:46:25;17.30;65.50
10062;DHT22;5070;52.382;5.270;2023-03-02T12:49:12;17.30;65.60
10062;DHT22;5070;52.382;5.270;2023-03-02T12:51:48;17.30;65.60
10062;DHT22;5070;52.382;5.270;2023-03-02T12:54:24;17.30;65.60
10062;DHT22;5070;52.382;5.270;2023-03-02T12:57:07;17.30;65.70
10062;DHT22;5070;52.382;5.270;2023-03-02T12:59:40;17.30;65.60
10062;DHT22;5070;52.382;5.270;2023-03-02T13:02:15;17.30;65.80
10062;DHT22;5070;52.382;5.270;2023-03-02T13:04:51;17.30;65.90
10062;DHT22;5070;52.382;5.270;2023-03-02T13:07:24;17.40;66.00
10062;DHT22;5070;52.382;5.270;2023-03-02T13:09:56;17.30;66.00
10062;DHT22;5070;52.382;5.270;2023-03-02T13:12:26;17.30;66.00
10062;DHT22;5070;52.382;5.270;2023-03-02T13:14:56;17.40;66.20
10062;DHT22;5070;52.382;5.270;2023-03-02T13:17:26;17.40;66.20
10062;DHT22;5070;52.382;5.270;2023-03-02T13:20:00;17.40;66.20
10062;DHT22;5070;52.382;5.270;2023-03-02T13:22:30;17.40;66.40
10062;DHT22;5070;52.382;5.270;2023-03-02T13:25:01;17.40;66.40
10062;DHT22;5070;52.382;5.270;2023-03-02T13:27:31;17.40;66.50
10062;DHT22;5070;52.382;5.270;2023-03-02T13:30:08;17.40;66.50
10062;DHT22;5070;52.382;5.270;2023-03-02T13:32:39;17.40;66.50
10062;DHT22;5070;52.382;5.270;2023-03-02T13:35:23;17.50;66.70
10062;DHT22;5070;52.382;5.270;2023-03-02T13:38:01;17.50;66.70
10062;DHT22;5070;52.382;5.270;2023-03-02T13:40:50;17.40;66.70
10062;DHT22;5070;52.382;5.270;2023-03-02T13:43:26;17.50;66.80
10062;DHT22;5070;52.382;5.270;2023-03-02T13:45:58;17.50;66.90
10062;DHT22;5070;52.382;5.270;2023-03-02T13:48:28;17.50;66.90
10062;DHT22;5070;52.382;5.270;2023-03-02T13:50:58;17.50;66.90
10062;DHT22;5070;52.382;5.270;2023-03-02T13:53:27;17.50;66.90
10062;DHT22;5070;52.382;5.270;2023-03-02T13:55:58;17.50;66.90
10062;DHT22;5070;52.382;5.270;2023-03-02T13:58:35;17.50;66.90
10062;DHT22;5070;52.382;5.270;2023-03-02T14:01:05;17.50;67.00
10062;DHT22;5070;52.382;5.270;2023-03-02T14:03:34;17.60;67.20
10062;DHT22;5070;52.382;5.270;2023-03-02T14:06:02;17.60;67.20
10062;DHT22;5070;52.382;5.270;2023-03-02T14:08:31;17.60;67.20
10062;DHT22;5070;52.382;5.270;2023-03-02T14:11:01;17.60;67.30
10062;DHT22;5070;52.382;5.270;2023-03-02T14:13:35;17.60;67.20
10062;DHT22;5070;52.382;5.270;2023-03-02T14:16:05;17.60;67.30
10062;DHT22;5070;52.382;5.270;2023-03-02T14:18:37;17.60;67.30
10062;DHT22;5070;52.382;5.270;2023-03-02T14:21:08;17.60;67.40
10062;DHT22;5070;52.382;5.270;2023-03-02T14:23:37;17.60;67.30
10062;DHT22;5070;52.382;5.270;2023-03-02T14:26:20;17.60;67.40
10062;DHT22;5070;52.382;5.270;2023-03-02T14:28:50;17.70;67.50
10062;DHT22;5070;52.382;5.270;2023-03-02T14:31:30;17.70;67.60
10062;DHT22;5070;52.382;5.270;2023-03-02T14:33:59;17.70;67.60
10062;DHT22;5070;52.382;5.270;2023-03-02T14:36:30;17.70;67.60
10062;DHT22;5070;52.382;5.270;2023-03-02T14:39:00;17.70;67.70
10062;DHT22;5070;52.382;5.270;2023-03-02T14:41:30;17.70;67.70
10062;DHT22;5070;52.382;5.270;2023-03-02T14:44:17;17.70;67.70
10062;DHT22;5070;52.382;5.270;2023-03-02T14:46:45;17.70;67.80
10062;DHT22;5070;52.382;5.270;2023-03-02T14:49:13;17.70;67.70
10062;DHT22;5070;52.382;5.270;2023-03-02T14:51:42;17.70;67.70
10062;DHT22;5070;52.382;5.270;2023-03-02T14:54:14;17.70;67.90
10062;DHT22;5070;52.382;5.270;2023-03-02T14:56:45;17.70;67.90
10062;DHT22;5070;52.382;5.270;2023-03-02T14:59:16;17.70;67.90
10062;DHT22;5070;52.382;5.270;2023-03-02T15:01:44;17.80;68.00
10062;DHT22;5070;52.382;5.270;2023-03-02T15:04:12;17.80;67.90
10062;DHT22;5070;52.382;5.270;2023-03-02T15:06:48;17.70;67.90
10062;DHT22;5070;52.382;5.270;2023-03-02T15:09:16;17.80;68.00
10062;DHT22;5070;52.382;5.270;2023-03-02T15:11:45;17.80;67.80
10062;DHT22;5070;52.382;5.270;2023-03-02T15:14:13;17.80;67.90
10062;DHT22;5070;52.382;5.270;2023-03-02T15:16:41;17.70;68.00
10062;DHT22;5070;52.382;5.270;2023-03-02T15:19:09;17.80;68.00
10062;DHT22;5070;52.382;5.270;2023-03-02T15:21:37;17.70;67.90
10062;DHT22;5070;52.382;5.270;2023-03-02T15:24:11;17.80;68.00
10062;DHT22;5070;52.382;5.270;2023-03-02T15:26:39;17.80;68.00
10062;DHT22;5070;52.382;5.270;2023-03-02T15:29:09;17.80;68.00
10062;DHT22;5070;52.382;5.270;2023-03-02T15:31:37;17.80;68.00
10062;DHT22;5070;52.382;5.270;2023-03-02T15:34:05;17.80;68.00
10062;DHT22;5070;52.382;5.270;2023-03-02T15:36:33;17.80;68.00
10062;DHT22;5070;52.382;5.270;2023-03-02T15:39:01;17.80;67.90
10062;DHT22;5070;52.382;5.270;2023-03-02T15:41:29;17.80;67.90
10062;DHT22;5070;52.382;5.270;2023-03-02T15:43:57;17.80;68.00
10062;DHT22;5070;52.382;5.270;2023-03-02T15:46:26;17.80;67.70
10062;DHT22;5070;52.382;5.270;2023-03-02T15:48:54;17.80;67.80
10062;DHT22;5070;52.382;5.270;2023-03-02T15:51:22;17.80;67.80
10062;DHT22;5070;52.382;5.270;2023-03-02T15:53:50;17.80;67.70
10062;DHT22;5070;52.382;5.270;2023-03-02T15:56:18;17.80;67.30
10062;DHT22;5070;52.382;5.270;2023-03-02T15:58:47;17.80;67.50
10062;DHT22;5070;52.382;5.270;2023-03-02T16:01:15;17.80;68.00
10062;DHT22;5070;52.382;5.270;2023-03-02T16:03:44;17.80;67.00
10062;DHT22;5070;52.382;5.270;2023-03-02T16:06:12;17.80;66.60
10062;DHT22;5070;52.382;5.270;2023-03-02T16:08:41;17.80;66.20
10062;DHT22;5070;52.382;5.270;2023-03-02T16:11:10;17.80;65.90
10062;DHT22;5070;52.382;5.270;2023-03-02T16:13:38;17.80;65.80